sensor_id;sensor_type;location;lat;lon;timestamp;pressure;altitude;pressure_sealevel;temperature;humidity
33155;BME280;19511;42.682;23.332;2023-03-15T00:01:03;94168.25;;;5.84;80.32
33155;BME280;19511;42.682;23.332;2023-03-15T00:03:31;94165.56;;;5.73;84.41
33155;BME280;19511;42.682;23.332;2023-03-15T00:06:02;94172.97;;;5.80;87.94
33155;BME280;19511;42.682;23.332;2023-03-15T00:08:29;94165.47;;;5.88;88.46
33155;BME280;19511;42.682;23.332;2023-03-15T00:10:58;94123.72;;;5.62;88.17
33155;BME280;19511;42.682;23.332;2023-03-15T00:13:24;94159.53;;;5.97;84.87
33155;BME280;19511;42.682;23.332;2023-03-15T00:15:52;94157.91;;;6.03;82.90
33155;BME280;19511;42.682;23.332;2023-03-15T00:18:20;94159.56;;;5.89;81.89
33155;BME280;19511;42.682;23.332;2023-03-15T00:20:45;94073.09;;;5.18;83.22
33155;BME280;19511;42.682;23.332;2023-03-15T00:23:17;94165.81;;;5.94;84.58
33155;BME280;19511;42.682;23.332;2023-03-15T00:25:45;94164.94;;;6.08;86.90
33155;BME280;19511;42.682;23.332;2023-03-15T00:28:12;94166.91;;;6.07;88.70
33155;BME280;19511;42.682;23.332;2023-03-15T00:30:38;94165.66;;;6.15;89.61
33155;BME280;19511;42.682;23.332;2023-03-15T00:33:04;94157.81;;;6.17;90.46
33155;BME280;19511;42.682;23.332;2023-03-15T00:35:31;94103.84;;;5.96;90.39
33155;BME280;19511;42.682;23.332;2023-03-15T00:37:57;94065.81;;;5.49;93.23
33155;BME280;19511;42.682;23.332;2023-03-15T00:40:23;94138.06;;;5.84;95.57
33155;BME280;19511;42.682;23.332;2023-03-15T00:42:50;94135.22;;;5.95;96.45
33155;BME280;19511;42.682;23.332;2023-03-15T00:45:20;94136.44;;;5.91;97.87
33155;BME280;19511;42.682;23.332;2023-03-15T00:47:50;94054.28;;;5.20;97.46
33155;BME280;19511;42.682;23.332;2023-03-15T00:50:21;94162.13;;;5.59;98.59
33155;BME280;19511;42.682;23.332;2023-03-15T00:52:47;94064.97;;;5.00;99.66
33155;BME280;19511;42.682;23.332;2023-03-15T00:55:19;94136.19;;;5.74;99.92
33155;BME280;19511;42.682;23.332;2023-03-15T00:57:46;94129.09;;;5.80;99.96
33155;BME280;19511;42.682;23.332;2023-03-15T01:00:17;94109.53;;;5.71;99.73
33155;BME280;19511;42.682;23.332;2023-03-15T01:02:49;94120.91;;;5.73;100.00
33155;BME280;19511;42.682;23.332;2023-03-15T01:05:17;94131.47;;;5.71;99.36
33155;BME280;19511;42.682;23.332;2023-03-15T01:07:46;94122.06;;;5.76;99.25
33155;BME280;19511;42.682;23.332;2023-03-15T01:10:13;94014.06;;;5.02;100.00
33155;BME280;19511;42.682;23.332;2023-03-15T01:12:40;94105.22;;;5.70;100.00
33155;BME280;19511;42.682;23.332;2023-03-15T01:15:07;94107.13;;;5.80;100.00
33155;BME280;19511;42.682;23.332;2023-03-15T01:17:33;94117.28;;;5.83;100.00
33155;BME280;19511;42.682;23.332;2023-03-15T01:19:59;94114.06;;;5.92;100.00
33155;BME280;19511;42.682;23.332;2023-03-15T01:22:26;94112.50;;;5.91;100.00
33155;BME280;19511;42.682;23.332;2023-03-15T01:24:55;94084.31;;;5.87;98.75
33155;BME280;19511;42.682;23.332;2023-03-15T01:27:24;94102.66;;;5.97;98.82
33155;BME280;19511;42.682;23.332;2023-03-15T01:29:54;94097.53;;;6.03;98.58
33155;BME280;19511;42.682;23.332;2023-03-15T01:32:19;94021.06;;;5.60;97.70
33155;BME280;19511;42.682;23.332;2023-03-15T01:34:45;94090.06;;;6.07;97.20
33155;BME280;19511;42.682;23.332;2023-03-15T01:37:10;94037.47;;;5.67;96.86
33155;BME280;19511;42.682;23.332;2023-03-15T01:39:39;94097.16;;;6.01;96.72
33155;BME280;19511;42.682;23.332;2023-03-15T01:42:06;94094.44;;;5.94;96.96
33155;BME280;19511;42.682;23.332;2023-03-15T01:47:15;93987.16;;;5.39;99.92
33155;BME280;19511;42.682;23.332;2023-03-15T01:49:42;94058.50;;;5.81;100.00
33155;BME280;19511;42.682;23.332;2023-03-15T01:52:14;94085.13;;;5.84;100.00
33155;BME280;19511;42.682;23.332;2023-03-15T01:54:49;94071.06;;;5.78;100.00
33155;BME280;19511;42.682;23.332;2023-03-15T01:59:51;94062.19;;;5.60;95.31
33155;BME280;19511;42.682;23.332;2023-03-15T02:02:20;94058.84;;;5.41;96.52
33155;BME280;19511;42.682;23.332;2023-03-15T02:04:50;94070.06;;;5.58;99.64
33155;BME280;19511;42.682;23.332;2023-03-15T02:07:24;94061.06;;;5.53;99.07
33155;BME280;19511;42.682;23.332;2023-03-15T02:10:11;93968.38;;;4.88;100.00
33155;BME280;19511;42.682;23.332;2023-03-15T02:12:42;94031.50;;;5.27;99.83
33155;BME280;19511;42.682;23.332;2023-03-15T02:15:14;94050.28;;;5.32;99.81
33155;BME280;19511;42.682;23.332;2023-03-15T02:17:43;94050.72;;;5.23;100.00
33155;BME280;19511;42.682;23.332;2023-03-15T02:20:40;94039.44;;;5.14;100.00
33155;BME280;19511;42.682;23.332;2023-03-15T02:23:13;94032.47;;;5.05;99.38
33155;BME280;19511;42.682;23.332;2023-03-15T02:28:12;94038.69;;;5.13;97.20
33155;BME280;19511;42.682;23.332;2023-03-15T02:30:42;94030.06;;;5.11;96.43
33155;BME280;19511;42.682;23.332;2023-03-15T02:33:19;94022.41;;;4.88;100.00
33155;BME280;19511;42.682;23.332;2023-03-15T02:35:50;94040.41;;;4.85;100.00
33155;BME280;19511;42.682;23.332;2023-03-15T02:38:16;94041.59;;;4.84;100.00
33155;BME280;19511;42.682;23.332;2023-03-15T02:40:45;94040.41;;;4.89;100.00
33155;BME280;19511;42.682;23.332;2023-03-15T02:43:15;94041.59;;;4.84;100.00
33155;BME280;19511;42.682;23.332;2023-03-15T02:45:41;94021.72;;;4.66;100.00
33155;BME280;19511;42.682;23.332;2023-03-15T02:48:07;94039.69;;;4.78;100.00
33155;BME280;19511;42.682;23.332;2023-03-15T02:50:34;94031.44;;;4.81;100.00
33155;BME280;19511;42.682;23.332;2023-03-15T02:53:04;94026.31;;;4.83;100.00
33155;BME280;19511;42.682;23.332;2023-03-15T02:55:30;94020.19;;;4.65;100.00
33155;BME280;19511;42.682;23.332;2023-03-15T02:57:59;94026.53;;;4.47;100.00
33155;BME280;19511;42.682;23.332;2023-03-15T03:00:30;94030.09;;;4.37;100.00
33155;BME280;19511;42.682;23.332;2023-03-15T03:02:57;93992.25;;;4.10;100.00
33155;BME280;19511;42.682;23.332;2023-03-15T03:05:26;94002.38;;;4.24;100.00
33155;BME280;19511;42.682;23.332;2023-03-15T03:07:54;94004.72;;;4.22;100.00
33155;BME280;19511;42.682;23.332;2023-03-15T03:10:20;93961.06;;;3.93;100.00
33155;BME280;19511;42.682;23.332;2023-03-15T03:12:50;94015.94;;;4.49;100.00
33155;BME280;19511;42.682;23.332;2023-03-15T03:15:18;94003.78;;;4.61;100.00
33155;BME280;19511;42.682;23.332;2023-03-15T03:17:43;93986.19;;;4.58;100.00
33155;BME280;19511;42.682;23.332;2023-03-15T03:20:11;93892.22;;;4.09;100.00
33155;BME280;19511;42.682;23.332;2023-03-15T03:22:38;94000.50;;;4.84;98.57
33155;BME280;19511;42.682;23.332;2023-03-15T03:25:06;93890.63;;;4.15;98.98
33155;BME280;19511;42.682;23.332;2023-03-15T03:27:33;93840.81;;;3.68;98.38
33155;BME280;19511;42.682;23.332;2023-03-15T03:30:06;93899.72;;;3.90;97.90
33155;BME280;19511;42.682;23.332;2023-03-15T03:32:32;93981.16;;;4.46;100.00
33155;BME280;19511;42.682;23.332;2023-03-15T03:34:58;93982.94;;;4.74;100.00
33155;BME280;19511;42.682;23.332;2023-03-15T03:37:24;93973.94;;;4.74;98.87
33155;BME280;19511;42.682;23.332;2023-03-15T03:39:50;93958.44;;;4.53;100.00
33155;BME280;19511;42.682;23.332;2023-03-15T03:42:18;93961.69;;;4.33;100.00
33155;BME280;19511;42.682;23.332;2023-03-15T03:44:46;93888.78;;;3.83;100.00
33155;BME280;19511;42.682;23.332;2023-03-15T03:47:11;93975.81;;;4.21;100.00
33155;BME280;19511;42.682;23.332;2023-03-15T03:49:36;93978.84;;;4.37;100.00
33155;BME280;19511;42.682;23.332;2023-03-15T03:52:05;93951.19;;;4.17;100.00
33155;BME280;19511;42.682;23.332;2023-03-15T03:54:30;93959.38;;;4.21;100.00
33155;BME280;19511;42.682;23.332;2023-03-15T03:56:56;93978.41;;;4.46;100.00
33155;BME280;19511;42.682;23.332;2023-03-15T03:59:21;93950.75;;;4.26;95.54
33155;BME280;19511;42.682;23.332;2023-03-15T04:01:47;93871.63;;;3.83;96.36
33155;BME280;19511;42.682;23.332;2023-03-15T04:04:15;93963.91;;;4.49;94.70
33155;BME280;19511;42.682;23.332;2023-03-15T04:06:41;93933.38;;;4.54;95.33
33155;BME280;19511;42.682;23.332;2023-03-15T04:09:17;93950.44;;;4.80;94.10
33155;BME280;19511;42.682;23.332;2023-03-15T04:11:42;93948.84;;;4.86;97.66
33155;BME280;19511;42.682;23.332;2023-03-15T04:14:09;93937.16;;;4.75;99.52
33155;BME280;19511;42.682;23.332;2023-03-15T04:16:37;93953.50;;;4.86;97.18
33155;BME280;19511;42.682;23.332;2023-03-15T04:19:13;93948.78;;;4.90;92.67
33155;BME280;19511;42.682;23.332;2023-03-15T04:21:39;93949.22;;;4.85;91.81
33155;BME280;19511;42.682;23.332;2023-03-15T04:24:15;93964.22;;;4.66;93.94
33155;BME280;19511;42.682;23.332;2023-03-15T04:26:43;93963.56;;;4.47;95.12
33155;BME280;19511;42.682;23.332;2023-03-15T04:29:11;93962.03;;;4.39;95.86
33155;BME280;19511;42.682;23.332;2023-03-15T04:31:38;93963.59;;;4.40;96.67
33155;BME280;19511;42.682;23.332;2023-03-15T04:34:08;93949.88;;;4.47;94.83
33155;BME280;19511;42.682;23.332;2023-03-15T04:36:33;93942.66;;;4.75;93.17
33155;BME280;19511;42.682;23.332;2023-03-15T04:38:59;93923.50;;;4.68;92.90
33155;BME280;19511;42.682;23.332;2023-03-15T04:41:32;93892.03;;;4.38;93.68
33155;BME280;19511;42.682;23.332;2023-03-15T04:44:00;93954.34;;;4.79;95.42
33155;BME280;19511;42.682;23.332;2023-03-15T04:46:25;93953.59;;;4.75;96.18
33155;BME280;19511;42.682;23.332;2023-03-15T04:48:51;93943.41;;;4.79;96.69
33155;BME280;19511;42.682;23.332;2023-03-15T04:51:16;93949.88;;;5.00;94.18
33155;BME280;19511;42.682;23.332;2023-03-15T04:53:45;93846.69;;;4.37;94.92
33155;BME280;19511;42.682;23.332;2023-03-15T04:56:11;93959.25;;;5.06;93.89
33155;BME280;19511;42.682;23.332;2023-03-15T04:58:36;93849.25;;;4.58;90.01
33155;BME280;19511;42.682;23.332;2023-03-15T05:01:01;93933.72;;;5.13;91.89
33155;BME280;19511;42.682;23.332;2023-03-15T05:03:27;93836.28;;;4.10;95.13
33155;BME280;19511;42.682;23.332;2023-03-15T05:05:52;93933.72;;;4.64;99.08
33155;BME280;19511;42.682;23.332;2023-03-15T05:08:24;93941.09;;;4.74;100.00
33155;BME280;19511;42.682;23.332;2023-03-15T05:10:57;93940.34;;;4.70;99.49
33155;BME280;19511;42.682;23.332;2023-03-15T05:13:22;93950.44;;;4.80;98.98
33155;BME280;19511;42.682;23.332;2023-03-15T05:15:48;93946.78;;;4.98;97.90
33155;BME280;19511;42.682;23.332;2023-03-15T05:18:13;93866.28;;;4.28;99.23
33155;BME280;19511;42.682;23.332;2023-03-15T05:20:39;93941.06;;;4.78;99.57
33155;BME280;19511;42.682;23.332;2023-03-15T05:23:04;93949.56;;;4.90;100.00
33155;BME280;19511;42.682;23.332;2023-03-15T05:25:30;93912.53;;;4.75;100.00
33155;BME280;19511;42.682;23.332;2023-03-15T05:27:55;93877.44;;;4.55;100.00
33155;BME280;19511;42.682;23.332;2023-03-15T05:30:21;93936.13;;;5.11;99.58
33155;BME280;19511;42.682;23.332;2023-03-15T05:32:46;93910.28;;;5.08;97.92
33155;BME280;19511;42.682;23.332;2023-03-15T05:35:12;93921.09;;;5.26;96.49
33155;BME280;19511;42.682;23.332;2023-03-15T05:37:37;93935.91;;;5.32;98.38
33155;BME280;19511;42.682;23.332;2023-03-15T05:40:03;93916.84;;;5.18;98.38
33155;BME280;19511;42.682;23.332;2023-03-15T05:42:32;93922.44;;;5.07;100.00
33155;BME280;19511;42.682;23.332;2023-03-15T05:44:59;93935.25;;;5.17;100.00
33155;BME280;19511;42.682;23.332;2023-03-15T05:47:24;93939.16;;;5.20;100.00
33155;BME280;19511;42.682;23.332;2023-03-15T05:49:50;93920.25;;;5.29;100.00
33155;BME280;19511;42.682;23.332;2023-03-15T05:52:19;93918.63;;;5.39;98.21
33155;BME280;19511;42.682;23.332;2023-03-15T05:54:48;93912.41;;;5.35;96.95
33155;BME280;19511;42.682;23.332;2023-03-15T05:57:14;93935.81;;;5.43;95.13
33155;BME280;19511;42.682;23.332;2023-03-15T05:59:39;93918.63;;;5.39;92.62
33155;BME280;19511;42.682;23.332;2023-03-15T06:02:05;93877.31;;;5.15;93.31
33155;BME280;19511;42.682;23.332;2023-03-15T06:04:30;93826.72;;;4.85;91.64
33155;BME280;19511;42.682;23.332;2023-03-15T06:06:56;93923.59;;;5.51;90.36
33155;BME280;19511;42.682;23.332;2023-03-15T06:09:26;93927.31;;;5.68;86.24
33155;BME280;19511;42.682;23.332;2023-03-15T06:11:55;93921.41;;;5.70;84.84
33155;BME280;19511;42.682;23.332;2023-03-15T06:14:27;93916.59;;;5.81;85.28
33155;BME280;19511;42.682;23.332;2023-03-15T06:16:53;93924.25;;;5.97;84.31
33155;BME280;19511;42.682;23.332;2023-03-15T06:19:19;93936.81;;;5.98;83.82
33155;BME280;19511;42.682;23.332;2023-03-15T06:21:46;93917.22;;;5.96;84.61
33155;BME280;19511;42.682;23.332;2023-03-15T06:24:12;93935.69;;;6.27;85.53
33155;BME280;19511;42.682;23.332;2023-03-15T06:26:38;93937.41;;;6.44;82.36
33155;BME280;19511;42.682;23.332;2023-03-15T06:29:04;93932.84;;;6.34;81.67
33155;BME280;19511;42.682;23.332;2023-03-15T06:31:36;93940.06;;;6.51;81.29
33155;BME280;19511;42.682;23.332;2023-03-15T06:34:01;93831.38;;;5.96;80.67
33155;BME280;19511;42.682;23.332;2023-03-15T06:36:27;93803.03;;;6.06;77.89
33155;BME280;19511;42.682;23.332;2023-03-15T06:38:55;93916.84;;;6.83;77.58
33155;BME280;19511;42.682;23.332;2023-03-15T06:41:20;93934.22;;;6.77;78.16
33155;BME280;19511;42.682;23.332;2023-03-15T06:43:50;93886.31;;;6.50;77.19
33155;BME280;19511;42.682;23.332;2023-03-15T06:46:16;93874.19;;;6.48;77.78
33155;BME280;19511;42.682;23.332;2023-03-15T06:48:45;93916.78;;;6.87;77.65
33155;BME280;19511;42.682;23.332;2023-03-15T06:51:10;93915.91;;;6.94;78.48
33155;BME280;19511;42.682;23.332;2023-03-15T06:53:40;93914.38;;;6.89;78.07
33155;BME280;19511;42.682;23.332;2023-03-15T06:56:06;93908.91;;;6.89;79.00
33155;BME280;19511;42.682;23.332;2023-03-15T06:58:35;93917.75;;;7.00;77.71
33155;BME280;19511;42.682;23.332;2023-03-15T07:01:02;93847.09;;;6.50;78.30
33155;BME280;19511;42.682;23.332;2023-03-15T07:03:27;93915.59;;;7.12;77.41
33155;BME280;19511;42.682;23.332;2023-03-15T07:05:54;93903.19;;;7.03;79.05
33155;BME280;19511;42.682;23.332;2023-03-15T07:08:24;93785.97;;;6.18;78.32
33155;BME280;19511;42.682;23.332;2023-03-15T07:10:50;93902.69;;;6.85;79.96
33155;BME280;19511;42.682;23.332;2023-03-15T07:13:16;93912.50;;;7.10;80.30
33155;BME280;19511;42.682;23.332;2023-03-15T07:15:42;93905.91;;;7.27;79.41
33155;BME280;19511;42.682;23.332;2023-03-15T07:18:11;93902.63;;;7.36;78.61
33155;BME280;19511;42.682;23.332;2023-03-15T07:20:39;93905.03;;;7.34;77.75
33155;BME280;19511;42.682;23.332;2023-03-15T07:23:04;93841.31;;;6.92;79.46
33155;BME280;19511;42.682;23.332;2023-03-15T07:25:34;93911.03;;;7.49;80.60
33155;BME280;19511;42.682;23.332;2023-03-15T07:27:59;93910.56;;;7.74;78.35
33155;BME280;19511;42.682;23.332;2023-03-15T07:30:25;93915.31;;;7.74;76.67
33155;BME280;19511;42.682;23.332;2023-03-15T07:32:50;93896.59;;;7.65;77.01
33155;BME280;19511;42.682;23.332;2023-03-15T07:35:16;93896.06;;;7.74;75.56
33155;BME280;19511;42.682;23.332;2023-03-15T07:37:42;93755.91;;;6.59;76.09
33155;BME280;19511;42.682;23.332;2023-03-15T07:40:12;93907.03;;;7.54;75.76
33155;BME280;19511;42.682;23.332;2023-03-15T07:42:38;93909.94;;;7.66;75.65
33155;BME280;19511;42.682;23.332;2023-03-15T07:45:06;93923.94;;;7.96;74.82
33155;BME280;19511;42.682;23.332;2023-03-15T07:47:31;93904.09;;;8.05;73.86
33155;BME280;19511;42.682;23.332;2023-03-15T07:49:57;93906.16;;;8.00;74.71
33155;BME280;19511;42.682;23.332;2023-03-15T07:52:23;93884.78;;;8.25;73.69
33155;BME280;19511;42.682;23.332;2023-03-15T07:54:49;93884.47;;;8.39;71.44
33155;BME280;19511;42.682;23.332;2023-03-15T07:57:15;93882.28;;;8.14;72.85
33155;BME280;19511;42.682;23.332;2023-03-15T07:59:47;93891.44;;;8.27;71.55
33155;BME280;19511;42.682;23.332;2023-03-15T08:02:14;93895.03;;;8.44;72.13
33155;BME280;19511;42.682;23.332;2023-03-15T08:04:39;93879.53;;;8.50;71.13
33155;BME280;19511;42.682;23.332;2023-03-15T08:07:06;93880.50;;;8.60;69.75
33155;BME280;19511;42.682;23.332;2023-03-15T08:09:31;93777.31;;;7.92;70.83
33155;BME280;19511;42.682;23.332;2023-03-15T08:11:59;93881.72;;;8.76;69.77
33155;BME280;19511;42.682;23.332;2023-03-15T08:14:24;93862.78;;;8.61;69.25
33155;BME280;19511;42.682;23.332;2023-03-15T08:16:50;93859.25;;;8.77;69.30
33155;BME280;19511;42.682;23.332;2023-03-15T08:19:17;93786.53;;;8.38;68.59
33155;BME280;19511;42.682;23.332;2023-03-15T08:21:42;93862.03;;;9.10;70.01
33155;BME280;19511;42.682;23.332;2023-03-15T08:24:15;93860.31;;;9.46;68.19
33155;BME280;19511;42.682;23.332;2023-03-15T08:26:41;93843.47;;;9.57;66.60
33155;BME280;19511;42.682;23.332;2023-03-15T08:29:10;93864.19;;;9.48;66.15
33155;BME280;19511;42.682;23.332;2023-03-15T08:31:38;93860.81;;;9.57;66.32
33155;BME280;19511;42.682;23.332;2023-03-15T08:34:03;93854.72;;;9.33;66.48
33155;BME280;19511;42.682;23.332;2023-03-15T08:36:30;93869.41;;;9.30;66.78
33155;BME280;19511;42.682;23.332;2023-03-15T08:38:56;93860.41;;;9.42;65.91
33155;BME280;19511;42.682;23.332;2023-03-15T08:41:22;93861.25;;;9.39;65.59
33155;BME280;19511;42.682;23.332;2023-03-15T08:43:47;93846.53;;;9.46;65.25
33155;BME280;19511;42.682;23.332;2023-03-15T08:46:13;93772.44;;;9.15;65.75
33155;BME280;19511;42.682;23.332;2023-03-15T08:48:38;93845.75;;;9.88;65.83
33155;BME280;19511;42.682;23.332;2023-03-15T08:51:05;93835.31;;;9.95;64.89
33155;BME280;19511;42.682;23.332;2023-03-15T08:53:31;93854.78;;;10.18;64.44
33155;BME280;19511;42.682;23.332;2023-03-15T08:56:03;93851.53;;;10.36;64.74
33155;BME280;19511;42.682;23.332;2023-03-15T08:58:29;93841.09;;;10.27;64.92
33155;BME280;19511;42.682;23.332;2023-03-15T09:00:54;93846.88;;;10.33;64.69
33155;BME280;19511;42.682;23.332;2023-03-15T09:03:21;93859.38;;;10.37;64.92
33155;BME280;19511;42.682;23.332;2023-03-15T09:05:54;93838.88;;;10.35;63.84
33155;BME280;19511;42.682;23.332;2023-03-15T09:08:21;93844.78;;;10.37;63.26
33155;BME280;19511;42.682;23.332;2023-03-15T09:10:53;93854.53;;;10.41;63.14
33155;BME280;19511;42.682;23.332;2023-03-15T09:13:19;93828.25;;;10.07;63.46
33155;BME280;19511;42.682;23.332;2023-03-15T09:15:44;93840.44;;;10.23;63.25
33155;BME280;19511;42.682;23.332;2023-03-15T09:18:09;93855.84;;;10.50;63.80
33155;BME280;19511;42.682;23.332;2023-03-15T09:20:35;93844.13;;;10.45;62.66
33155;BME280;19511;42.682;23.332;2023-03-15T09:23:00;93852.22;;;10.53;62.72
33155;BME280;19511;42.682;23.332;2023-03-15T09:25:26;93857.28;;;10.41;63.10
33155;BME280;19511;42.682;23.332;2023-03-15T09:27:52;93855.09;;;10.49;63.85
33155;BME280;19511;42.682;23.332;2023-03-15T09:30:17;93851.06;;;10.37;63.34
33155;BME280;19511;42.682;23.332;2023-03-15T09:32:43;93858.16;;;10.51;64.52
33155;BME280;19511;42.682;23.332;2023-03-15T09:35:15;93843.69;;;10.47;63.92
33155;BME280;19511;42.682;23.332;2023-03-15T09:37:41;93829.53;;;10.58;64.03
33155;BME280;19511;42.682;23.332;2023-03-15T09:40:30;93848.44;;;10.72;63.14
33155;BME280;19511;42.682;23.332;2023-03-15T09:48:14;93831.03;;;11.10;62.51
33155;BME280;19511;42.682;23.332;2023-03-15T09:50:56;93833.88;;;11.20;61.33
33155;BME280;19511;42.682;23.332;2023-03-15T09:53:46;93833.97;;;11.29;63.08
33155;BME280;19511;42.682;23.332;2023-03-15T09:56:23;93794.41;;;11.06;61.50
33155;BME280;19511;42.682;23.332;2023-03-15T09:58:55;93819.00;;;11.39;61.72
33155;BME280;19511;42.682;23.332;2023-03-15T10:01:30;93821.19;;;11.44;60.08
33155;BME280;19511;42.682;23.332;2023-03-15T10:03:57;93824.50;;;11.04;60.64
33155;BME280;19511;42.682;23.332;2023-03-15T10:06:36;93832.56;;;11.11;62.40
33155;BME280;19511;42.682;23.332;2023-03-15T10:09:10;93817.53;;;11.13;61.31
33155;BME280;19511;42.682;23.332;2023-03-15T10:12:15;93820.50;;;11.18;61.25
33155;BME280;19511;42.682;23.332;2023-03-15T10:17:27;93736.31;;;10.58;60.16
33155;BME280;19511;42.682;23.332;2023-03-15T10:19:58;93820.06;;;11.07;60.54
33155;BME280;19511;42.682;23.332;2023-03-15T10:22:33;93827.38;;;11.01;61.35
33155;BME280;19511;42.682;23.332;2023-03-15T10:28:13;93823.84;;;11.48;59.60
33155;BME280;19511;42.682;23.332;2023-03-15T10:30:49;93824.69;;;11.58;59.36
33155;BME280;19511;42.682;23.332;2023-03-15T10:35:50;93817.72;;;11.18;58.55
33155;BME280;19511;42.682;23.332;2023-03-15T10:38:17;93812.22;;;11.05;59.16
33155;BME280;19511;42.682;23.332;2023-03-15T10:40:57;93814.53;;;11.07;59.33
33155;BME280;19511;42.682;23.332;2023-03-15T10:43:24;93802.38;;;11.04;60.95
33155;BME280;19511;42.682;23.332;2023-03-15T10:48:29;93812.72;;;11.26;58.95
33155;BME280;19511;42.682;23.332;2023-03-15T10:50:55;93814.59;;;11.29;59.68
33155;BME280;19511;42.682;23.332;2023-03-15T10:53:22;93805.38;;;11.32;58.83
33155;BME280;19511;42.682;23.332;2023-03-15T10:56:00;93815.59;;;11.35;58.13
33155;BME280;19511;42.682;23.332;2023-03-15T10:58:37;93819.88;;;11.36;58.41
33155;BME280;19511;42.682;23.332;2023-03-15T11:01:29;93816.63;;;11.16;60.60
33155;BME280;19511;42.682;23.332;2023-03-15T11:04:09;93814.72;;;11.25;59.80
33155;BME280;19511;42.682;23.332;2023-03-15T11:09:17;93798.53;;;11.37;58.53
33155;BME280;19511;42.682;23.332;2023-03-15T11:12:08;93804.34;;;11.52;58.30
33155;BME280;19511;42.682;23.332;2023-03-15T11:14:41;93804.06;;;11.59;58.36
33155;BME280;19511;42.682;23.332;2023-03-15T11:17:21;93805.75;;;11.56;59.78
33155;BME280;19511;42.682;23.332;2023-03-15T11:19:57;93779.59;;;11.57;59.17
33155;BME280;19511;42.682;23.332;2023-03-15T11:22:29;93786.28;;;11.69;60.55
33155;BME280;19511;42.682;23.332;2023-03-15T11:24:56;93800.97;;;11.79;58.79
33155;BME280;19511;42.682;23.332;2023-03-15T11:27:23;93722.94;;;11.27;57.97
33155;BME280;19511;42.682;23.332;2023-03-15T11:29:56;93799.19;;;11.85;57.64
33155;BME280;19511;42.682;23.332;2023-03-15T11:32:28;93789.59;;;11.77;57.44
33155;BME280;19511;42.682;23.332;2023-03-15T11:35:04;93807.03;;;11.87;56.65
33155;BME280;19511;42.682;23.332;2023-03-15T11:37:37;93782.44;;;11.44;57.68
33155;BME280;19511;42.682;23.332;2023-03-15T11:45:34;93789.44;;;11.81;57.57
33155;BME280;19511;42.682;23.332;2023-03-15T11:48:06;93708.00;;;11.24;58.01
33155;BME280;19511;42.682;23.332;2023-03-15T11:50:38;93783.84;;;11.71;57.90
33155;BME280;19511;42.682;23.332;2023-03-15T11:53:05;93776.13;;;11.88;58.02
33155;BME280;19511;42.682;23.332;2023-03-15T11:55:36;93783.72;;;11.97;56.54
33155;BME280;19511;42.682;23.332;2023-03-15T11:58:40;93789.81;;;11.92;57.72
33155;BME280;19511;42.682;23.332;2023-03-15T12:01:10;93777.78;;;11.86;57.51
33155;BME280;19511;42.682;23.332;2023-03-15T12:06:49;93772.91;;;11.90;61.64
33155;BME280;19511;42.682;23.332;2023-03-15T12:17:48;93762.06;;;11.83;65.43
33155;BME280;19511;42.682;23.332;2023-03-15T12:22:49;93692.66;;;11.55;64.93
33155;BME280;19511;42.682;23.332;2023-03-15T12:26:06;93759.03;;;11.90;66.17
33155;BME280;19511;42.682;23.332;2023-03-15T12:28:19;93747.00;;;11.84;66.97
33155;BME280;19511;42.682;23.332;2023-03-15T12:30:53;93761.63;;;11.62;68.13
33155;BME280;19511;42.682;23.332;2023-03-15T12:33:24;93744.56;;;11.64;68.73
33155;BME280;19511;42.682;23.332;2023-03-15T12:36:00;93740.13;;;11.66;68.64
33155;BME280;19511;42.682;23.332;2023-03-15T12:38:34;93732.06;;;11.59;70.29
33155;BME280;19511;42.682;23.332;2023-03-15T12:41:06;93750.63;;;11.71;70.22
33155;BME280;19511;42.682;23.332;2023-03-15T12:43:40;93680.72;;;11.14;71.74
33155;BME280;19511;42.682;23.332;2023-03-15T12:49:43;93741.34;;;11.65;73.73
33155;BME280;19511;42.682;23.332;2023-03-15T12:55:14;93737.34;;;11.66;75.18
33155;BME280;19511;42.682;23.332;2023-03-15T12:57:48;93744.94;;;11.53;76.96
33155;BME280;19511;42.682;23.332;2023-03-15T13:00:16;93743.16;;;11.59;75.12
33155;BME280;19511;42.682;23.332;2023-03-15T13:03:03;93753.97;;;11.66;72.91
33155;BME280;19511;42.682;23.332;2023-03-15T13:08:29;93684.81;;;11.31;71.34
33155;BME280;19511;42.682;23.332;2023-03-15T13:16:26;93728.97;;;11.79;70.07
33155;BME280;19511;42.682;23.332;2023-03-15T13:32:44;93736.38;;;11.82;65.37
33155;BME280;19511;42.682;23.332;2023-03-15T13:35:12;93738.69;;;11.84;65.31
33155;BME280;19511;42.682;23.332;2023-03-15T13:37:37;93754.72;;;11.89;64.91
33155;BME280;19511;42.682;23.332;2023-03-15T13:40:11;93757.81;;;11.91;64.25
33155;BME280;19511;42.682;23.332;2023-03-15T13:42:41;93671.81;;;11.41;64.63
33155;BME280;19511;42.682;23.332;2023-03-15T13:45:14;93740.50;;;11.77;64.34
33155;BME280;19511;42.682;23.332;2023-03-15T13:47:40;93747.97;;;11.90;63.93
33155;BME280;19511;42.682;23.332;2023-03-15T13:50:07;93748.56;;;11.85;63.80
33155;BME280;19511;42.682;23.332;2023-03-15T13:52:32;93751.97;;;11.89;64.25
33155;BME280;19511;42.682;23.332;2023-03-15T13:54:59;93746.81;;;11.78;64.14
33155;BME280;19511;42.682;23.332;2023-03-15T13:57:26;93747.00;;;11.84;64.77
33155;BME280;19511;42.682;23.332;2023-03-15T14:00:02;93750.72;;;11.90;64.05
33155;BME280;19511;42.682;23.332;2023-03-15T14:02:43;93729.25;;;11.50;64.98
33155;BME280;19511;42.682;23.332;2023-03-15T14:05:23;93753.84;;;11.70;66.28
33155;BME280;19511;42.682;23.332;2023-03-15T14:10:25;93754.59;;;11.70;68.54
33155;BME280;19511;42.682;23.332;2023-03-15T14:12:57;93748.94;;;11.74;69.28
33155;BME280;19511;42.682;23.332;2023-03-15T14:15:35;93746.75;;;11.69;69.79
33155;BME280;19511;42.682;23.332;2023-03-15T14:18:26;93748.44;;;11.66;71.02
33155;BME280;19511;42.682;23.332;2023-03-15T14:23:43;93743.94;;;11.59;72.48
33155;BME280;19511;42.682;23.332;2023-03-15T14:26:17;93744.06;;;11.56;73.59